ADDS METAR Data INFO
IDs: Format: Raw Decoded Include TAF

Data at: 0431 UTC 28 Jul 2017

KALI 280353Z AUTO 14007KT 10SM CLR 26/23 A2996 RMK AO2 SLP141 T02610233
KALI 280253Z AUTO 14010KT 10SM CLR 28/23 A2995 RMK AO2 SLP139 T02780228 53009
KALI 280153Z AUTO 14012KT 10SM CLR 29/22 A2993 RMK AO2 SLP134 T02890217
KALI 280053Z AUTO 15015G20KT 10SM CLR 31/21 A2992 RMK AO2 SLP130 T03110206
KALI 272353Z AUTO 15015KT 10SM CLR 33/19 A2992 RMK AO2 SLP130 T03330189 10372 20333 55011
KALI 272253Z AUTO 15014KT 10SM CLR 35/19 A2992 RMK AO2 SLP129 T03500194
KALI 272153Z AUTO 13013KT 10SM CLR 36/20 A2993 RMK AO2 SLP133 T03610200
KALI 272053Z AUTO 16011G18KT 10SM FEW070 36/19 A2995 RMK AO2 SLP140 T03560194 56021
KALI 271953Z AUTO 13012KT 10SM FEW060 36/19 A2997 RMK AO2 SLP146 T03610189
KALI 271853Z AUTO 15011G15KT 10SM SCT055 36/20 A2999 RMK AO2 SLP154 T03560200
KALI 271753Z AUTO 16007KT 10SM CLR 34/20 A3002 RMK AO2 SLP162 T03390200 10344 20222 58007
KALI 271653Z AUTO 16009KT 10SM FEW040 33/22 A3003 RMK AO2 SLP167 T03280217
KALI 271553Z AUTO 16009KT 10SM FEW029 32/23 A3004 RMK AO2 SLP169 T03170228
KALI 271453Z AUTO 16005KT 10SM CLR 30/23 A3004 RMK AO2 SLP169 T03000233 50008
KALI 271353Z AUTO 15006KT 10SM CLR 27/24 A3004 RMK AO2 SLP170 T02670239
KALI 271253Z AUTO 12004KT 10SM CLR 24/23 A3003 RMK AO2 SLP165 T02440228
KALI 271153Z AUTO 15004KT 10SM CLR 23/22 A3001 RMK AO2 SLP161 70063 T02280217 10244 20222 53008
KALI 271053Z AUTO 00000KT 10SM CLR 23/22 A3001 RMK AO2 SLP158 T02280222
KALI 270953Z AUTO 18004KT 10SM CLR 23/23 A2999 RMK AO2 SLP153 T02330228
KALI 270853Z AUTO 16005KT 10SM CLR 23/23 A2999 RMK AO2 SLP153 T02330228 58020
KALI 270753Z AUTO 17006KT 10SM CLR 24/23 A3001 RMK AO2 SLP158 T02390228
KALI 270653Z AUTO 17005KT 10SM CLR 24/23 A3004 RMK AO2 SLP169 T02390228
KALI 270553Z AUTO 17004KT 10SM CLR 24/22 A3005 RMK AO2 SLP172 T02390222 10283 20233 403780228 50010
KALI 270453Z AUTO 14004KT 10SM CLR 24/23 A3005 RMK AO2 SLP174 T02390228
KALI 270353Z AUTO 15007KT 10SM CLR 24/22 A3005 RMK AO2 SLP172 T02440222
KALI 270253Z AUTO 15008KT 10SM CLR 26/22 A3002 RMK AO2 SLP162 T02560222 53008
KALI 270153Z AUTO 14009KT 10SM CLR 26/22 A3001 RMK AO2 SLP159 T02610222
KALI 270053Z AUTO 17005KT 10SM CLR 27/21 A2999 RMK AO2 SLP154 T02720211
KALI 262353Z AUTO 18007KT 10SM CLR 28/21 A3000 RMK AO2 SLP155 60063 T02830206 10378 20244 55017
KALI 262253Z AUTO 16009KT 10SM CLR 28/23 A3000 RMK AO2 SLP154 T02830233
KALI 262153Z AUTO 14004KT 10SM CLR 28/24 A3000 RMK AO2 LTG DSNT NE SLP158 T02780244
KALI 262104Z AUTO 14004KT 10SM CLR 26/23 A3005 RMK AO2 LTG DSNT N AND NW T02560228
KALI 262053Z AUTO 09005KT 10SM VCTS CLR 26/23 A3004 RMK AO2 PK WND 17037/1955 LTG DSNT N AND SE AND NW RAB1955E21 TSE35 SLP171 P0062 60063 T02560228 53001
KALI 262041Z AUTO 12009KT 10SM VCTS FEW120 24/23 A3004 RMK AO2 PK WND 17037/1955 LTG DSNT ALQDS RAB1955E21 TSE35 P0062 T02440228
KALI 262019Z AUTO VRB03KT 10SM -TSRA FEW029 BKN100 OVC120 25/22 A3003 RMK AO2 PK WND 17037/1955 LTG DSNT NW-NE RAB1955 P0062 T02500222
KALI 262012Z AUTO 23006KT 2SM -TSRA FEW010 SCT055 BKN120 24/22 A3002 RMK AO2 PK WND 17037/1955 LTG DSNT ALQDS RAB1955 P0062 T02440217
KALI 262010Z AUTO 22006KT 3/4SM -TSRA FEW012 BKN055 BKN120 24/21 A3003 RMK AO2 PK WND 17037/1955 LTG DSNT ALQDS RAB1955 P0062 T02440211
KALI 262000Z AUTO VRB04G37KT 1/4SM +TSRA FEW014 BKN060 OVC080 25/21 A3005 RMK AO2 PK WND 17037/1955 LTG DSNT ALQDS RAB1955 PRESRR P0045 T02500211
KALI 261956Z AUTO 17029G37KT 3/4SM -TSRA FEW022 BKN060 OVC080 26/21 A3003 RMK AO2 PK WND 17037/1955 LTG DSNT ALQDS RAB55 P0016 T02560211
KALI 261953Z AUTO 16022G31KT 9SM TS BKN055 OVC075 27/21 A3003 RMK AO2 PK WND 16031/1953 LTG DSNT NE AND S AND SW RAB30E45 TSB37 SLP165 P0001 T02720211
KALI 261943Z AUTO 17019G29KT 10SM -TSRA BKN060 OVC075 29/23 A3002 RMK AO2 PK WND 17029/1936 LTG DSNT S AND SW RAB30 TSB37 P0000 T02890228
KALI 261931Z AUTO 19015G20KT 9SM VCTS -RA BKN060 33/22 A3002 RMK AO2 LTG DSNT S AND SW RAB30 P0000 T03330217
KALI 261853Z AUTO 18010G16KT 10SM SCT060 37/20 A3001 RMK AO2 LTG DSNT S SLP159 T03670200
KALI 261753Z AUTO 19013G19KT 10SM FEW055 37/20 A3004 RMK AO2 SLP169 T03670200 10367 20228 58012
KALI 261653Z AUTO 16013KT 10SM CLR 34/21 A3006 RMK AO2 SLP176 T03440206